Time;durP1;ratioP1;P1;durP2;ratioP2;P2;SDS_P1;SDS_P2;PMS_P1;PMS_P2;Temp;Humidity;BMP_temperature;BMP_pressure;BME280_temperature;BME280_humidity;BME280_pressure;Samples;Min_cycle;Max_cycle;Signal;HPM_P1;HPM_P2
2023/03/05 00:01:32;;;;;;;13.80;1.40;;;3.60;99.90;;;;;;4967332;28;20051;-61
2023/03/05 00:03:59;;;;;;;8.45;2.28;;;3.60;99.90;;;;;;4971741;28;20405;-61
2023/03/05 00:06:27;;;;;;;16.02;2.80;;;3.60;99.90;;;;;;4966462;28;20054;-61
2023/03/05 00:08:55;;;;;;;21.48;3.22;;;3.60;99.90;;;;;;4970979;28;20129;-61
2023/03/05 00:11:21;;;;;;;14.35;1.88;;;3.60;99.90;;;;;;4971572;28;20050;-61
2023/03/05 00:13:50;;;;;;;6.07;2.03;;;3.60;99.90;;;;;;4972507;28;20502;-68
2023/03/05 00:16:16;;;;;;;11.77;2.60;;;3.50;99.90;;;;;;4965710;28;20057;-61
2023/03/05 00:18:42;;;;;;;11.75;1.88;;;3.40;99.90;;;;;;4969815;28;20043;-61
2023/03/05 00:21:19;;;;;;;13.65;3.47;;;3.30;99.90;;;;;;4981879;28;20043;-60
2023/03/05 00:23:45;;;;;;;12.52;3.03;;;3.30;99.90;;;;;;4967861;28;20690;-61
2023/03/05 00:26:10;;;;;;;16.88;3.33;;;3.30;99.90;;;;;;4965064;28;20046;-61
2023/03/05 00:28:36;;;;;;;12.90;2.50;;;3.20;99.90;;;;;;4972280;28;20103;-61
2023/03/05 00:31:02;;;;;;;7.95;1.08;;;3.30;99.90;;;;;;4977939;28;20125;-61
2023/03/05 00:33:27;;;;;;;10.00;1.67;;;3.20;99.90;;;;;;4968328;28;20038;-61
2023/03/05 00:35:53;;;;;;;10.98;1.55;;;3.20;99.90;;;;;;4967943;28;20589;-61
2023/03/05 00:38:19;;;;;;;10.68;1.85;;;3.20;99.90;;;;;;4967290;28;20047;-61
2023/03/05 00:40:44;;;;;;;9.20;1.77;;;3.30;99.90;;;;;;4965453;28;20055;-61
2023/03/05 00:43:10;;;;;;;11.98;1.70;;;3.30;99.90;;;;;;4967293;28;20031;-63
2023/03/05 00:45:36;;;;;;;8.02;1.30;;;3.40;99.90;;;;;;4971820;28;20089;-61
2023/03/05 00:48:03;;;;;;;6.82;1.00;;;3.40;99.90;;;;;;4971802;28;20050;-61
2023/03/05 00:50:29;;;;;;;18.73;1.45;;;3.40;99.90;;;;;;4968001;28;20102;-61
2023/03/05 00:52:54;;;;;;;10.30;2.15;;;3.40;99.90;;;;;;4948441;28;20093;-61
2023/03/05 00:55:21;;;;;;;6.30;1.02;;;3.50;99.90;;;;;;4957025;28;20166;-61
2023/03/05 00:57:46;;;;;;;6.32;0.80;;;3.50;99.90;;;;;;4968417;28;20087;-61
2023/03/05 01:00:13;;;;;;;8.20;0.88;;;3.50;99.90;;;;;;4978650;28;20412;-61
2023/03/05 01:02:39;;;;;;;8.52;0.95;;;3.40;99.90;;;;;;4966796;28;20458;-61
2023/03/05 01:05:05;;;;;;;25.77;4.07;;;3.50;99.90;;;;;;4966621;28;20049;-61
2023/03/05 01:07:31;;;;;;;7.00;0.75;;;3.50;99.90;;;;;;4967376;28;20478;-61
2023/03/05 01:09:57;;;;;;;10.30;1.10;;;3.50;99.90;;;;;;4965299;28;20051;-61
2023/03/05 01:12:22;;;;;;;6.32;1.25;;;3.60;99.90;;;;;;4977766;28;20054;-61
2023/03/05 01:14:48;;;;;;;6.68;0.90;;;3.60;99.90;;;;;;4965574;28;20051;-60
2023/03/05 01:17:14;;;;;;;7.45;1.13;;;3.50;99.90;;;;;;4974175;28;20541;-61
2023/03/05 01:19:39;;;;;;;6.13;0.70;;;3.50;99.90;;;;;;4968990;28;20035;-61
2023/03/05 01:22:05;;;;;;;4.57;0.82;;;3.40;99.90;;;;;;4970555;28;20097;-61
2023/03/05 01:24:31;;;;;;;12.18;1.52;;;3.40;99.90;;;;;;4973642;28;20034;-61
2023/03/05 01:26:57;;;;;;;9.27;1.23;;;3.40;99.90;;;;;;4969011;28;20577;-61
2023/03/05 01:29:23;;;;;;;8.85;1.55;;;3.30;99.90;;;;;;4970086;28;20101;-61
2023/03/05 01:31:49;;;;;;;14.60;2.20;;;3.40;99.90;;;;;;4968366;28;20051;-61
2023/03/05 01:34:15;;;;;;;8.55;1.40;;;3.20;99.90;;;;;;4953242;28;20045;-61
2023/03/05 01:36:41;;;;;;;12.05;1.38;;;3.20;99.90;;;;;;4968303;28;20035;-62
2023/03/05 01:39:07;;;;;;;11.85;1.42;;;3.20;99.90;;;;;;4971271;28;20059;-61
2023/03/05 01:41:33;;;;;;;6.47;1.77;;;3.20;99.90;;;;;;4983311;28;20509;-61
2023/03/05 01:43:59;;;;;;;15.90;3.35;;;3.20;99.90;;;;;;4969281;28;20042;-61
2023/03/05 01:46:38;;;;;;;12.27;1.73;;;3.20;99.90;;;;;;4971329;28;20463;-61
2023/03/05 01:49:09;;;;;;;6.85;1.15;;;3.20;99.90;;;;;;4975059;28;20054;-61
2023/03/05 01:51:55;;;;;;;7.57;1.58;;;3.30;99.90;;;;;;4982494;28;20122;-61
2023/03/05 01:54:27;;;;;;;8.05;1.40;;;3.30;99.90;;;;;;4968016;28;20402;-61
2023/03/05 01:56:55;;;;;;;10.75;1.02;;;3.30;99.90;;;;;;4980251;28;20050;-90
2023/03/05 01:59:23;;;;;;;7.70;1.10;;;3.20;99.90;;;;;;4980866;28;20074;-61
2023/03/05 02:01:52;;;;;;;6.47;1.05;;;3.20;99.90;;;;;;4974738;28;20137;-61
2023/03/05 02:04:19;;;;;;;8.33;2.30;;;3.20;99.90;;;;;;4952542;28;20481;-61
2023/03/05 02:06:46;;;;;;;14.95;1.00;;;3.30;99.90;;;;;;4978289;28;20606;-61
2023/03/05 02:09:12;;;;;;;4.75;1.00;;;3.30;99.90;;;;;;4976430;28;20600;-61
2023/03/05 02:11:39;;;;;;;2.03;0.55;;;3.30;99.90;;;;;;4968871;28;20043;-83
2023/03/05 02:14:06;;;;;;;5.10;0.70;;;3.20;99.90;;;;;;4951781;28;20461;-65
2023/03/05 02:16:35;;;;;;;11.52;1.70;;;3.30;99.90;;;;;;4969975;28;20580;-61
2023/03/05 02:19:07;;;;;;;9.82;1.10;;;3.30;99.90;;;;;;4971044;28;20050;-61
2023/03/05 02:21:47;;;;;;;13.73;2.10;;;3.30;99.90;;;;;;4969907;28;20039;-61
2023/03/05 02:24:39;;;;;;;15.48;1.73;;;3.30;99.90;;;;;;4968024;28;20505;-62
2023/03/05 02:27:05;;;;;;;11.07;1.30;;;3.20;99.90;;;;;;4949755;28;20093;-62
2023/03/05 02:29:32;;;;;;;13.65;2.05;;;3.30;99.90;;;;;;4971147;28;20509;-62
2023/03/05 02:31:59;;;;;;;9.30;1.70;;;3.30;99.90;;;;;;4951567;28;20055;-63
2023/03/05 02:34:25;;;;;;;12.25;2.22;;;3.30;99.90;;;;;;4969379;28;20074;-63
2023/03/05 02:36:51;;;;;;;15.50;1.75;;;3.30;99.90;;;;;;4951105;28;20047;-63
2023/03/05 02:39:17;;;;;;;12.38;1.67;;;3.20;99.90;;;;;;4981851;28;20057;-63
2023/03/05 02:41:42;;;;;;;9.10;1.42;;;3.10;99.90;;;;;;4951542;28;20042;-88
2023/03/05 02:44:08;;;;;;;14.77;1.48;;;3.20;99.90;;;;;;4979373;28;20050;-63
2023/03/05 02:46:34;;;;;;;6.97;1.05;;;3.00;99.90;;;;;;4964625;28;20046;-63
2023/03/05 02:49:00;;;;;;;5.88;1.08;;;3.00;99.90;;;;;;4958651;28;20058;-64
2023/03/05 02:51:26;;;;;;;8.20;1.08;;;2.90;99.90;;;;;;4973837;28;20049;-64
2023/03/05 02:53:52;;;;;;;9.35;0.93;;;2.90;99.90;;;;;;4966983;28;20077;-64
2023/03/05 02:56:18;;;;;;;5.85;0.63;;;2.80;99.90;;;;;;4970397;28;20074;-64
2023/03/05 02:58:43;;;;;;;13.15;2.97;;;2.80;99.90;;;;;;4967219;28;20442;-70
2023/03/05 03:01:09;;;;;;;15.00;4.13;;;2.70;99.90;;;;;;4968805;28;20138;-64
2023/03/05 03:03:36;;;;;;;19.25;4.25;;;2.70;99.90;;;;;;4967756;28;20047;-64
2023/03/05 03:06:02;;;;;;;13.90;2.30;;;2.70;99.90;;;;;;4968962;28;20047;-63
2023/03/05 03:08:27;;;;;;;9.02;1.30;;;2.70;99.90;;;;;;4968296;28;20097;-64
2023/03/05 03:10:55;;;;;;;12.63;1.60;;;2.80;99.90;;;;;;4966881;28;20038;-64
2023/03/05 03:13:24;;;;;;;12.05;1.65;;;2.80;99.90;;;;;;4968707;28;20387;-63
2023/03/05 03:15:50;;;;;;;8.05;1.90;;;2.90;99.90;;;;;;4966615;28;20093;-64
2023/03/05 03:18:15;;;;;;;21.33;8.10;;;3.00;99.90;;;;;;4968296;28;20078;-64
2023/03/05 03:20:41;;;;;;;15.50;4.97;;;3.00;99.90;;;;;;4967566;28;20035;-63
2023/03/05 03:23:07;;;;;;;13.30;2.80;;;3.10;99.90;;;;;;4967897;28;20070;-63
2023/03/05 03:25:33;;;;;;;11.73;1.88;;;3.10;99.90;;;;;;4968361;28;20053;-63
2023/03/05 03:27:58;;;;;;;15.05;3.47;;;3.10;99.90;;;;;;4967451;28;20046;-63
2023/03/05 03:30:26;;;;;;;12.05;2.85;;;3.00;99.90;;;;;;4970025;28;20517;-64
2023/03/05 03:32:51;;;;;;;11.88;2.92;;;3.00;99.90;;;;;;4965974;28;20142;-64
2023/03/05 03:35:17;;;;;;;8.98;1.35;;;3.00;99.90;;;;;;4968624;28;20129;-64
2023/03/05 03:37:43;;;;;;;4.03;0.80;;;3.00;99.90;;;;;;4950455;28;20450;-65
2023/03/05 03:40:11;;;;;;;9.50;1.40;;;2.90;99.90;;;;;;4974254;28;20125;-64
2023/03/05 03:42:36;;;;;;;9.45;0.90;;;2.90;99.90;;;;;;4975171;28;20138;-64
2023/03/05 03:45:02;;;;;;;6.28;0.70;;;2.90;99.90;;;;;;4966639;28;20117;-64
2023/03/05 03:47:29;;;;;;;4.93;0.88;;;2.80;99.90;;;;;;4969567;28;20046;-64
2023/03/05 03:49:57;;;;;;;8.52;0.80;;;2.80;99.90;;;;;;4969081;28;20050;-64
2023/03/05 03:52:23;;;;;;;3.60;0.68;;;2.70;99.90;;;;;;4967233;28;20126;-64
2023/03/05 03:54:51;;;;;;;9.10;1.15;;;2.70;99.90;;;;;;4966257;28;20129;-64
2023/03/05 03:57:16;;;;;;;1.88;0.40;;;2.70;99.90;;;;;;4973454;28;20050;-64
2023/03/05 03:59:44;;;;;;;8.73;0.85;;;2.70;99.90;;;;;;4968280;28;20560;-64
2023/03/05 04:02:10;;;;;;;5.63;0.65;;;2.70;99.90;;;;;;4974049;28;20051;-64
2023/03/05 04:04:35;;;;;;;8.82;1.00;;;2.60;99.90;;;;;;4967659;28;20051;-64
2023/03/05 04:07:01;;;;;;;10.63;1.30;;;2.60;99.90;;;;;;4966083;28;20038;-64
2023/03/05 04:09:27;;;;;;;9.27;1.05;;;2.60;99.90;;;;;;4969630;28;20859;-64
2023/03/05 04:11:52;;;;;;;13.98;1.10;;;2.60;99.90;;;;;;4966694;28;20061;-64
2023/03/05 04:14:18;;;;;;;6.38;1.25;;;2.70;99.90;;;;;;4967855;28;20043;-64
2023/03/05 04:16:44;;;;;;;9.60;1.02;;;2.60;99.90;;;;;;4967105;28;20501;-64
2023/03/05 04:19:09;;;;;;;7.88;1.08;;;2.60;99.90;;;;;;4970369;28;20042;-64
2023/03/05 04:21:35;;;;;;;8.15;0.70;;;2.50;99.90;;;;;;4967574;28;20046;-64
2023/03/05 04:24:01;;;;;;;4.93;0.95;;;2.50;99.90;;;;;;4966315;28;20086;-64
2023/03/05 04:26:27;;;;;;;4.82;0.60;;;2.50;99.90;;;;;;4967941;28;20038;-64
2023/03/05 04:28:52;;;;;;;7.10;0.88;;;2.50;99.90;;;;;;4966018;28;20054;-64
2023/03/05 04:31:19;;;;;;;6.80;0.70;;;2.50;99.90;;;;;;4963481;28;20051;-64
2023/03/05 04:33:45;;;;;;;4.72;0.80;;;2.60;99.90;;;;;;4966319;28;20274;-64
2023/03/05 04:36:10;;;;;;;3.22;0.82;;;2.60;99.90;;;;;;4966176;28;20047;-64
2023/03/05 04:38:36;;;;;;;24.35;1.48;;;2.50;99.90;;;;;;4973568;28;20502;-64
2023/03/05 04:41:02;;;;;;;7.15;1.15;;;2.60;99.90;;;;;;4973058;28;20053;-64
2023/03/05 04:43:27;;;;;;;9.98;1.38;;;2.60;99.90;;;;;;4967395;28;20493;-64
2023/03/05 04:45:54;;;;;;;5.97;0.90;;;2.50;99.90;;;;;;4966051;28;20043;-80
2023/03/05 04:48:20;;;;;;;9.05;1.30;;;2.50;99.90;;;;;;4949373;28;20039;-65
2023/03/05 04:50:45;;;;;;;13.00;1.30;;;2.50;99.90;;;;;;4971870;28;20069;-65
2023/03/05 04:53:11;;;;;;;7.15;1.02;;;2.50;99.90;;;;;;4955518;28;20097;-64
2023/03/05 04:55:37;;;;;;;10.80;1.20;;;2.50;99.90;;;;;;4970034;28;20070;-64
2023/03/05 04:58:03;;;;;;;15.75;1.00;;;2.50;99.90;;;;;;4970567;28;20059;-64
2023/03/05 05:00:29;;;;;;;8.30;1.15;;;2.50;99.90;;;;;;4971167;28;20466;-77
2023/03/05 05:02:55;;;;;;;11.88;1.00;;;2.50;99.90;;;;;;4971722;28;20046;-64
2023/03/05 05:05:23;;;;;;;6.40;1.40;;;2.50;99.90;;;;;;4970585;28;20035;-64
2023/03/05 05:07:53;;;;;;;15.52;1.50;;;2.60;99.90;;;;;;4969369;28;20039;-64
2023/03/05 05:10:18;;;;;;;7.57;1.35;;;2.60;99.90;;;;;;4970625;28;20035;-64
2023/03/05 05:12:44;;;;;;;7.88;0.98;;;2.60;99.90;;;;;;4977287;28;20416;-64
2023/03/05 05:15:11;;;;;;;12.95;1.55;;;2.60;99.90;;;;;;4970316;28;20043;-64
2023/03/05 05:17:37;;;;;;;11.75;2.53;;;2.70;99.90;;;;;;4969908;28;20050;-64
2023/03/05 05:20:07;;;;;;;7.32;1.90;;;2.70;99.90;;;;;;4969820;28;20043;-63
2023/03/05 05:22:34;;;;;;;13.60;1.40;;;2.80;99.90;;;;;;4979750;28;20446;-64
2023/03/05 05:25:00;;;;;;;9.75;1.65;;;2.80;99.90;;;;;;4969047;28;20066;-64
2023/03/05 05:27:25;;;;;;;11.88;1.95;;;2.80;99.90;;;;;;4970287;28;20054;-64
2023/03/05 05:29:51;;;;;;;10.32;2.20;;;2.80;99.90;;;;;;4968553;28;20043;-64
2023/03/05 05:32:19;;;;;;;13.45;2.20;;;2.90;99.90;;;;;;4958090;28;20074;-64
2023/03/05 05:34:45;;;;;;;16.52;2.40;;;2.80;99.90;;;;;;4970365;28;20054;-64
2023/03/05 05:37:10;;;;;;;18.52;2.45;;;2.90;99.90;;;;;;4969221;28;20047;-64
2023/03/05 05:39:36;;;;;;;9.52;1.52;;;2.90;99.90;;;;;;4970040;28;20253;-64
2023/03/05 05:42:02;;;;;;;5.68;0.75;;;2.90;99.90;;;;;;4969098;28;20046;-69
2023/03/05 05:44:28;;;;;;;6.40;1.23;;;2.90;99.90;;;;;;4976174;28;20050;-64
2023/03/05 05:46:54;;;;;;;6.00;0.60;;;2.90;99.90;;;;;;4968223;28;20049;-64
2023/03/05 05:49:19;;;;;;;3.25;0.63;;;2.80;99.90;;;;;;4969989;28;20054;-64
2023/03/05 05:51:45;;;;;;;2.45;0.75;;;2.80;99.90;;;;;;4951607;28;20035;-64
2023/03/05 05:54:15;;;;;;;2.72;0.60;;;2.80;99.90;;;;;;4974710;28;20496;-64
2023/03/05 05:56:41;;;;;;;6.30;0.80;;;2.70;99.90;;;;;;4969609;28;20137;-64
2023/03/05 05:59:09;;;;;;;8.18;0.60;;;2.60;99.90;;;;;;4968878;28;20130;-64
2023/03/05 06:01:34;;;;;;;11.27;1.45;;;2.60;99.90;;;;;;4939958;28;20069;-64
2023/03/05 06:04:01;;;;;;;8.02;1.40;;;2.50;99.90;;;;;;4979617;28;20504;-64
2023/03/05 06:06:27;;;;;;;10.23;2.38;;;2.50;99.90;;;;;;4969664;28;20043;-64
2023/03/05 06:08:54;;;;;;;7.68;0.95;;;2.40;99.90;;;;;;4968570;28;20078;-64
2023/03/05 06:11:20;;;;;;;5.00;0.82;;;2.40;99.90;;;;;;4958665;28;20129;-74
2023/03/05 06:13:47;;;;;;;6.25;0.77;;;2.30;99.90;;;;;;4975496;28;20129;-64
2023/03/05 06:16:18;;;;;;;5.47;0.95;;;2.30;99.90;;;;;;4950588;28;20042;-65
2023/03/05 06:18:44;;;;;;;3.97;0.50;;;2.30;99.90;;;;;;4969932;28;20130;-64
2023/03/05 06:21:15;;;;;;;15.02;0.70;;;2.20;99.90;;;;;;4967756;28;20122;-64
2023/03/05 06:23:42;;;;;;;8.70;0.93;;;2.20;99.90;;;;;;4970903;28;20110;-64
2023/03/05 06:26:09;;;;;;;6.25;0.90;;;2.10;99.90;;;;;;4950380;28;20082;-65
2023/03/05 06:28:35;;;;;;;12.52;0.95;;;2.10;99.90;;;;;;4969004;28;20047;-64
2023/03/05 06:31:06;;;;;;;6.80;0.90;;;2.10;99.90;;;;;;4968929;28;20054;-64
2023/03/05 06:33:32;;;;;;;8.25;0.70;;;2.20;99.90;;;;;;4934414;28;20046;-64
2023/03/05 06:35:58;;;;;;;6.00;0.80;;;2.10;99.90;;;;;;4969555;28;20038;-64
2023/03/05 06:38:24;;;;;;;13.25;1.42;;;2.10;99.90;;;;;;4966830;28;20659;-63
2023/03/05 06:40:50;;;;;;;9.95;1.00;;;2.20;99.90;;;;;;4969361;28;20054;-64
2023/03/05 06:43:16;;;;;;;6.75;0.70;;;2.20;99.90;;;;;;4950003;28;20042;-64
2023/03/05 06:45:42;;;;;;;7.22;1.35;;;2.20;99.90;;;;;;4968830;28;20047;-64
2023/03/05 06:48:08;;;;;;;6.15;1.02;;;2.20;99.90;;;;;;4968170;28;20047;-64
2023/03/05 06:50:35;;;;;;;5.68;1.08;;;2.30;99.90;;;;;;4967934;28;20043;-64
2023/03/05 06:53:01;;;;;;;6.38;0.80;;;2.30;99.90;;;;;;4951791;28;20061;-64
2023/03/05 06:55:27;;;;;;;2.60;0.60;;;2.30;99.90;;;;;;4977404;28;20057;-64
2023/03/05 06:57:53;;;;;;;7.57;0.90;;;2.30;99.90;;;;;;4969087;28;20055;-64
2023/03/05 07:00:19;;;;;;;8.77;0.93;;;2.40;99.90;;;;;;4953796;28;20058;-64
2023/03/05 07:02:44;;;;;;;12.32;0.85;;;2.40;99.90;;;;;;4969167;28;20050;-64
2023/03/05 07:05:10;;;;;;;15.10;1.10;;;2.40;99.90;;;;;;4961837;28;20042;-64
2023/03/05 07:07:36;;;;;;;14.30;1.60;;;2.50;99.90;;;;;;4967991;28;20125;-64
2023/03/05 07:10:03;;;;;;;13.38;1.45;;;2.50;99.90;;;;;;4968439;28;20046;-64
2023/03/05 07:12:29;;;;;;;8.02;1.15;;;2.70;99.90;;;;;;4966874;28;20416;-64
2023/03/05 07:14:54;;;;;;;10.48;1.80;;;2.80;99.90;;;;;;4954367;28;20070;-65
2023/03/05 07:17:20;;;;;;;11.05;1.67;;;2.80;99.90;;;;;;4971667;28;20043;-64
2023/03/05 07:19:46;;;;;;;13.02;1.50;;;2.90;99.90;;;;;;4935833;28;20070;-64
2023/03/05 07:22:11;;;;;;;6.60;1.02;;;3.00;99.90;;;;;;4949765;28;20112;-63
2023/03/05 07:24:39;;;;;;;15.45;1.98;;;3.10;99.90;;;;;;4967611;28;20046;-64
2023/03/05 07:27:05;;;;;;;9.43;1.48;;;3.10;99.90;;;;;;4974775;28;20105;-64
2023/03/05 07:29:31;;;;;;;8.63;1.25;;;3.10;99.90;;;;;;4966616;28;20047;-64
2023/03/05 07:31:56;;;;;;;13.52;2.33;;;3.10;99.90;;;;;;4969140;28;20133;-64
2023/03/05 07:34:23;;;;;;;10.48;1.52;;;3.10;99.90;;;;;;4974610;28;20081;-64
2023/03/05 07:36:52;;;;;;;17.88;1.88;;;3.10;99.90;;;;;;4962125;28;20062;-67
2023/03/05 07:39:18;;;;;;;14.07;1.38;;;3.10;99.90;;;;;;4968704;28;20116;-64
2023/03/05 07:41:45;;;;;;;11.23;2.10;;;3.20;99.90;;;;;;4969292;28;20168;-64
2023/03/05 07:44:11;;;;;;;15.27;2.53;;;3.20;99.90;;;;;;4968451;28;20054;-64
2023/03/05 07:46:36;;;;;;;22.33;5.63;;;3.30;99.90;;;;;;4976952;28;20125;-64
2023/03/05 07:49:03;;;;;;;19.50;6.10;;;3.40;99.90;;;;;;4959530;28;20042;-64
2023/03/05 07:51:29;;;;;;;18.70;4.03;;;3.60;99.90;;;;;;4984164;28;20512;-68
2023/03/05 07:53:57;;;;;;;14.20;3.60;;;3.80;99.90;;;;;;4967445;28;20413;-64
2023/03/05 07:56:25;;;;;;;10.45;1.63;;;3.80;99.90;;;;;;4984831;28;20054;-66
2023/03/05 07:58:51;;;;;;;12.00;1.95;;;4.00;99.90;;;;;;4974069;28;20051;-64
2023/03/05 08:01:17;;;;;;;10.68;1.88;;;4.10;99.90;;;;;;4951179;28;20046;-64
2023/03/05 08:03:43;;;;;;;18.65;2.63;;;4.20;99.90;;;;;;4995783;23;20069;-64
2023/03/05 08:06:10;;;;;;;10.02;1.33;;;4.40;99.90;;;;;;4986879;28;20060;-64
2023/03/05 08:08:36;;;;;;;24.23;6.68;;;4.50;99.90;;;;;;4988371;28;20054;-64
2023/03/05 08:11:07;;;;;;;11.85;4.05;;;4.60;99.90;;;;;;4985242;28;20038;-64
2023/03/05 08:13:32;;;;;;;14.75;5.80;;;4.70;99.90;;;;;;4989205;28;20058;-64
2023/03/05 08:15:58;;;;;;;18.00;4.25;;;4.70;99.90;;;;;;4988131;28;20042;-64
2023/03/05 08:18:24;;;;;;;11.38;3.50;;;4.90;99.90;;;;;;4989173;28;20042;-64
2023/03/05 08:20:50;;;;;;;20.75;8.05;;;5.00;99.90;;;;;;4986088;28;20069;-63
2023/03/05 08:23:15;;;;;;;15.52;4.18;;;5.20;99.90;;;;;;4988406;28;20431;-63
2023/03/05 08:25:41;;;;;;;15.50;3.63;;;5.30;99.90;;;;;;4987610;28;20046;-64
2023/03/05 08:28:07;;;;;;;10.32;2.30;;;5.30;99.90;;;;;;4986425;28;20137;-64
2023/03/05 08:30:32;;;;;;;11.63;1.88;;;5.40;98.00;;;;;;4992950;28;20316;-64
2023/03/05 08:32:58;;;;;;;15.88;1.98;;;5.40;98.50;;;;;;4991425;28;20439;-64
2023/03/05 08:35:24;;;;;;;15.35;4.28;;;5.40;98.40;;;;;;4992678;28;20080;-63
2023/03/05 08:37:50;;;;;;;18.27;4.55;;;5.40;99.90;;;;;;4991991;28;20443;-63
2023/03/05 08:40:16;;;;;;;14.85;2.38;;;5.40;98.20;;;;;;4992379;28;20081;-64
2023/03/05 08:42:43;;;;;;;10.40;1.48;;;5.40;99.50;;;;;;4992221;28;20043;-63
2023/03/05 08:45:09;;;;;;;10.48;1.45;;;5.40;99.90;;;;;;4985589;28;20047;-64
2023/03/05 08:47:35;;;;;;;11.23;1.20;;;5.40;98.10;;;;;;4992175;28;20125;-64
2023/03/05 08:50:00;;;;;;;7.57;0.90;;;5.30;96.80;;;;;;4989301;28;20142;-63
2023/03/05 08:52:26;;;;;;;8.63;0.70;;;5.30;96.40;;;;;;4985850;28;20038;-64
2023/03/05 08:54:52;;;;;;;7.68;1.42;;;5.30;97.90;;;;;;4982513;28;20071;-63
2023/03/05 08:57:18;;;;;;;6.97;1.20;;;5.30;98.70;;;;;;4987458;28;20529;-63
2023/03/05 08:59:43;;;;;;;8.00;1.00;;;5.20;98.60;;;;;;4975440;28;20054;-63
2023/03/05 09:02:11;;;;;;;5.65;0.90;;;5.20;99.60;;;;;;4980540;28;20071;-64
2023/03/05 09:04:37;;;;;;;5.65;0.90;;;5.30;99.80;;;;;;4997446;28;20057;-64
2023/03/05 09:07:03;;;;;;;4.93;0.90;;;5.30;97.70;;;;;;5009628;28;20373;-64
2023/03/05 09:09:29;;;;;;;7.95;0.60;;;5.40;98.20;;;;;;5004857;28;20046;-63
2023/03/05 09:12:04;;;;;;;1.90;0.57;;;5.60;99.60;;;;;;5010255;28;20046;-64
2023/03/05 09:14:29;;;;;;;2.63;0.55;;;5.70;95.70;;;;;;5008425;28;20066;-63
2023/03/05 09:16:56;;;;;;;3.72;0.60;;;5.70;92.30;;;;;;5008627;28;20085;-64
2023/03/05 09:19:22;;;;;;;3.22;0.40;;;5.60;93.20;;;;;;5003434;28;20068;-64
2023/03/05 09:21:48;;;;;;;2.22;0.60;;;5.60;92.30;;;;;;5010795;28;20042;-63
2023/03/05 09:24:14;;;;;;;5.93;0.70;;;5.70;92.90;;;;;;4992695;28;20123;-64
2023/03/05 09:26:41;;;;;;;5.00;1.40;;;5.80;91.90;;;;;;5011213;28;20879;-64
2023/03/05 09:29:07;;;;;;;13.32;2.47;;;5.70;92.10;;;;;;4992317;28;20046;-64
2023/03/05 09:31:37;;;;;;;12.18;1.15;;;5.80;93.20;;;;;;5011172;28;20042;-64
2023/03/05 09:34:04;;;;;;;8.65;1.20;;;5.80;93.20;;;;;;5010221;28;20081;-64
2023/03/05 09:36:31;;;;;;;8.15;1.08;;;5.90;93.70;;;;;;5010836;28;20515;-64
2023/03/05 09:38:57;;;;;;;9.93;1.35;;;5.90;92.40;;;;;;5010256;28;20089;-64
2023/03/05 09:42:04;;;;;;;10.13;1.75;;;6.00;92.80;;;;;;4992239;28;20526;-64
2023/03/05 09:44:49;;;;;;;5.72;0.90;;;5.90;92.50;;;;;;4991165;28;20061;-64
2023/03/05 09:47:36;;;;;;;12.50;3.33;;;5.80;92.90;;;;;;5004407;28;20069;-64
2023/03/05 09:50:31;;;;;;;10.40;2.40;;;5.80;95.70;;;;;;4998002;28;20143;-64
2023/03/05 09:53:34;;;;;;;7.43;1.50;;;6.00;95.70;;;;;;5001707;28;20692;-64
2023/03/05 09:56:22;;;;;;;8.85;0.57;;;6.10;96.40;;;;;;5010776;28;20479;-63
2023/03/05 09:58:56;;;;;;;6.43;1.10;;;6.20;92.90;;;;;;5009315;28;20052;-64
2023/03/05 10:01:30;;;;;;;8.02;1.50;;;6.20;91.50;;;;;;5010901;28;20050;-64
2023/03/05 10:04:20;;;;;;;6.30;0.85;;;6.40;92.50;;;;;;4986531;28;20050;-64
2023/03/05 10:07:11;;;;;;;8.55;1.48;;;6.40;91.00;;;;;;5005385;28;20054;-63
2023/03/05 10:09:46;;;;;;;4.00;0.60;;;6.40;90.60;;;;;;4989685;28;20065;-63
2023/03/05 10:12:27;;;;;;;9.30;1.25;;;6.50;90.90;;;;;;5001295;28;20496;-63
2023/03/05 10:14:54;;;;;;;10.95;1.10;;;6.50;90.60;;;;;;5001885;28;20507;-63
2023/03/05 10:17:46;;;;;;;7.00;1.23;;;6.50;89.30;;;;;;4985352;28;20042;-63
2023/03/05 10:20:30;;;;;;;2.60;0.60;;;6.50;90.00;;;;;;5003078;28;20401;-63
2023/03/05 10:23:04;;;;;;;5.50;1.00;;;6.50;87.20;;;;;;5002141;28;20046;-62
2023/03/05 10:25:48;;;;;;;9.50;1.60;;;6.50;86.10;;;;;;5001893;28;20101;-62
2023/03/05 10:28:27;;;;;;;7.18;1.40;;;6.60;86.60;;;;;;5003135;28;20041;-63
2023/03/05 10:31:04;;;;;;;12.35;2.38;;;6.70;90.70;;;;;;4994287;28;20043;-62
2023/03/05 10:33:46;;;;;;;13.05;1.33;;;6.70;87.70;;;;;;4992350;28;20089;-63
2023/03/05 10:36:44;;;;;;;6.95;1.00;;;6.80;88.60;;;;;;4991012;28;20103;-63
2023/03/05 10:39:25;;;;;;;13.05;1.67;;;6.60;82.70;;;;;;4996082;28;20042;-63
2023/03/05 10:41:55;;;;;;;4.03;1.17;;;6.50;87.00;;;;;;4984503;28;20115;-62
2023/03/05 10:44:51;;;;;;;;;;;6.60;89.30;;;;;;4976117;28;20086;-63
2023/03/05 10:47:44;;;;;;;9.52;1.02;;;6.70;90.00;;;;;;4957211;28;20307;-63
2023/03/05 10:50:32;;;;;;;10.25;1.30;;;6.60;85.50;;;;;;4992553;28;20037;-62
2023/03/05 10:53:20;;;;;;;8.63;1.05;;;6.60;84.90;;;;;;5008171;28;20046;-63
2023/03/05 10:55:49;;;;;;;4.45;0.73;;;6.60;85.20;;;;;;5008727;28;20052;-63
2023/03/05 10:58:16;;;;;;;9.68;1.10;;;6.50;85.90;;;;;;4976041;28;20480;-62
2023/03/05 11:01:03;;;;;;;6.70;1.38;;;6.50;81.90;;;;;;5009690;28;20046;-62
2023/03/05 11:03:54;;;;;;;5.68;0.98;;;6.40;79.10;;;;;;4988334;28;20136;-63
2023/03/05 11:06:36;;;;;;;10.55;1.27;;;6.40;81.20;;;;;;5008814;28;20153;-63
2023/03/05 11:09:20;;;;;;;8.13;1.33;;;6.40;83.10;;;;;;5007889;28;20400;-63
2023/03/05 11:12:07;;;;;;;6.93;1.55;;;6.50;84.00;;;;;;4989957;28;20056;-62
2023/03/05 11:14:36;;;;;;;7.00;1.60;;;6.70;81.60;;;;;;5008460;28;20045;-63
2023/03/05 11:17:21;;;;;;;15.45;2.33;;;6.80;79.90;;;;;;4988909;28;20072;-63
2023/03/05 11:19:46;;;;;;;10.27;1.20;;;6.90;76.40;;;;;;5001526;28;20917;-62
2023/03/05 11:22:19;;;;;;;9.95;1.50;;;7.00;76.20;;;;;;4992140;28;20120;-62
2023/03/05 11:25:17;;;;;;;12.98;2.15;;;7.10;74.90;;;;;;4974888;28;20412;-63
2023/03/05 11:27:43;;;;;;;9.40;3.58;;;7.00;75.80;;;;;;5003887;28;20136;-63
2023/03/05 11:30:39;;;;;;;8.55;3.28;;;6.90;76.30;;;;;;4988909;28;20244;-63
2023/03/05 11:33:07;;;;;;;8.63;1.27;;;7.00;78.50;;;;;;4989341;28;20037;-63
2023/03/05 11:35:36;;;;;;;7.95;1.20;;;7.00;73.60;;;;;;4990367;28;20049;-63
2023/03/05 11:38:04;;;;;;;8.00;1.15;;;6.90;76.60;;;;;;4988395;28;20053;-62
2023/03/05 11:40:34;;;;;;;9.70;1.80;;;6.70;72.00;;;;;;5008089;28;20046;-63
2023/03/05 11:43:04;;;;;;;8.13;2.03;;;6.60;74.90;;;;;;5006509;28;20053;-63
2023/03/05 11:45:31;;;;;;;6.20;1.40;;;6.80;77.10;;;;;;5006210;28;20096;-62
2023/03/05 11:48:19;;;;;;;9.38;1.30;;;6.90;78.50;;;;;;4989637;28;20403;-63
2023/03/05 11:50:51;;;;;;;7.30;1.63;;;6.80;78.80;;;;;;4997012;28;20077;-62
2023/03/05 11:53:30;;;;;;;6.63;1.33;;;6.60;77.70;;;;;;5007952;28;20054;-62
2023/03/05 11:56:12;;;;;;;8.23;1.15;;;6.60;76.50;;;;;;4996966;28;20129;-62
2023/03/05 11:58:45;;;;;;;4.60;0.90;;;6.60;75.70;;;;;;5005313;28;20384;-63
2023/03/05 12:01:27;;;;;;;8.65;1.50;;;6.80;76.00;;;;;;4989553;28;20042;-62
2023/03/05 12:03:54;;;;;;;8.43;1.63;;;6.90;76.70;;;;;;5006299;28;20050;-63
2023/03/05 12:06:35;;;;;;;5.63;1.90;;;6.90;76.50;;;;;;5007090;28;20564;-62
2023/03/05 12:09:08;;;;;;;10.77;2.55;;;6.90;76.70;;;;;;5005539;28;20046;-62
2023/03/05 12:11:35;;;;;;;6.25;2.92;;;6.80;73.70;;;;;;5006951;28;20046;-62
2023/03/05 12:14:05;;;;;;;8.20;1.65;;;6.90;75.60;;;;;;4973695;28;20479;-62
2023/03/05 12:16:42;;;;;;;6.07;1.60;;;7.20;71.60;;;;;;5006443;28;20037;-62
2023/03/05 12:19:33;;;;;;;3.03;0.90;;;7.30;74.80;;;;;;5001394;28;20038;-62
2023/03/05 12:21:59;;;;;;;4.63;1.20;;;7.30;72.90;;;;;;4989485;28;20056;-62
2023/03/05 12:24:25;;;;;;;6.40;1.05;;;7.10;75.70;;;;;;4989146;28;20491;-62
2023/03/05 12:27:02;;;;;;;4.75;1.00;;;7.00;71.50;;;;;;4988083;28;20058;-62
2023/03/05 12:29:31;;;;;;;4.18;1.17;;;6.80;70.60;;;;;;5001929;28;20081;-62
2023/03/05 12:31:59;;;;;;;3.28;0.90;;;6.70;75.10;;;;;;5006346;28;20085;-62
2023/03/05 12:34:45;;;;;;;7.63;1.85;;;6.80;74.50;;;;;;4981768;28;20203;-62
2023/03/05 12:37:20;;;;;;;6.20;1.10;;;6.90;70.80;;;;;;4984005;28;20604;-62
2023/03/05 12:40:06;;;;;;;5.43;1.20;;;7.20;75.90;;;;;;5000237;28;20057;-61
2023/03/05 12:42:32;;;;;;;4.25;0.90;;;7.20;75.20;;;;;;4998907;28;20510;-62
2023/03/05 12:45:11;;;;;;;6.22;2.33;;;7.10;71.90;;;;;;5001098;28;20042;-62
2023/03/05 12:47:38;;;;;;;7.13;1.38;;;7.10;69.50;;;;;;4993571;28;20050;-61
2023/03/05 12:50:24;;;;;;;3.35;0.80;;;7.10;70.60;;;;;;5004132;28;20508;-62
2023/03/05 12:52:51;;;;;;;3.17;0.95;;;7.00;70.60;;;;;;4985689;28;20057;-62
2023/03/05 12:55:22;;;;;;;3.65;1.13;;;7.20;71.30;;;;;;4999500;28;20381;-61
2023/03/05 12:57:57;;;;;;;4.53;0.90;;;7.60;72.80;;;;;;4998722;28;20053;-61
2023/03/05 13:00:48;;;;;;;8.80;1.05;;;7.50;67.40;;;;;;5000893;28;20253;-61
2023/03/05 13:03:21;;;;;;;4.72;1.35;;;7.40;69.60;;;;;;4999485;28;20984;-62
2023/03/05 13:05:53;;;;;;;8.02;1.95;;;7.20;70.60;;;;;;5002287;28;20062;-61